Time,TemperatureF,DewpointF,PressureIn,WindDirection,WindDirectionDegrees,WindSpeedMPH,WindSpeedGustMPH,Humidity,HourlyPrecipIn,Conditions,Clouds,dailyrainin,SoftwareType,DateUTC
2013-06-21 00:04:00,57.9,48.2,29.95,SSW,204,3.5,3.5,70,0.00,CLR,,0.00,WeatherDisplay:10.37,2013-06-21 07:04:00,
2013-06-21 00:09:00,57.9,48.2,29.95,SSW,210,3.5,3.5,70,0.00,CLR,,0.00,WeatherDisplay:10.37,2013-06-21 07:09:00,
2013-06-21 00:14:00,57.9,48.6,29.95,South,169,2.3,2.3,71,0.00,CLR,,0.00,WeatherDisplay:10.37,2013-06-21 07:14:00,
2013-06-21 00:19:00,57.9,48.6,29.96,SW,221,1.1,1.1,71,0.00,CLR,,0.00,WeatherDisplay:10.37,2013-06-21 07:19:00,
2013-06-21 00:24:00,57.6,48.3,29.95,WSW,240,1.1,1.1,71,0.00,CLR,,0.00,WeatherDisplay:10.37,2013-06-21 07:24:00,
2013-06-21 00:29:00,57.3,48.3,29.95,SW,224,1.1,1.1,72,0.00,CLR,,0.00,WeatherDisplay:10.37,2013-06-21 07:29:00,
2013-06-21 00:34:00,57.1,48.2,29.95,SW,229,1.1,1.1,72,0.00,CLR,,0.00,WeatherDisplay:10.37,2013-06-21 07:34:00,
2013-06-21 00:39:00,56.9,48.0,29.95,South,176,1.1,1.1,72,0.00,CLR,,0.00,WeatherDisplay:10.37,2013-06-21 07:39:00,
2013-06-21 00:44:00,56.7,48.1,29.96,South,171,2.3,2.3,73,0.00,CLR,,0.00,WeatherDisplay:10.37,2013-06-21 07:44:00,
2013-06-21 00:49:00,56.5,47.9,29.96,South,170,0.0,0.0,73,0.00,CLR,,0.00,WeatherDisplay:10.37,2013-06-21 07:49:00,
2013-06-21 00:54:00,56.2,48.0,29.95,South,177,1.1,0.0,74,0.00,CLR,,0.00,WeatherDisplay:10.37,2013-06-21 07:54:00,
2013-06-21 00:59:00,56.1,47.9,29.95,SSW,208,1.1,1.1,74,0.00,CLR,,0.00,WeatherDisplay:10.37,2013-06-21 07:59:00,
2013-06-21 01:04:00,55.9,47.7,29.95,SSW,208,0.0,0.0,74,0.00,CLR,,0.00,WeatherDisplay:10.37,2013-06-21 08:04:00,
2013-06-21 01:09:00,55.7,47.5,29.95,SSW,208,0.0,0.0,74,0.00,CLR,,0.00,WeatherDisplay:10.37,2013-06-21 08:09:00,
2013-06-21 01:14:00,55.3,46.8,29.95,SSW,208,0.0,0.0,73,0.00,CLR,,0.00,WeatherDisplay:10.37,2013-06-21 08:14:00,
2013-06-21 01:19:00,54.2,46.4,29.95,SSW,208,0.0,0.0,75,0.00,CLR,,0.00,WeatherDisplay:10.37,2013-06-21 08:19:00,
2013-06-21 01:24:00,53.5,46.5,29.95,SSW,208,0.0,0.0,77,0.00,CLR,,0.00,WeatherDisplay:10.37,2013-06-21 08:24:00,
2013-06-21 01:29:00,53.0,46.7,29.95,SSW,208,0.0,0.0,79,0.00,CLR,,0.00,WeatherDisplay:10.37,2013-06-21 08:29:00,
2013-06-21 01:34:00,52.7,47.0,29.95,SSW,208,0.0,0.0,81,0.00,CLR,,0.00,WeatherDisplay:10.37,2013-06-21 08:34:00,
2013-06-21 01:39:00,52.4,46.4,29.95,SSW,208,0.0,0.0,80,0.00,CLR,,0.00,WeatherDisplay:10.37,2013-06-21 08:39:00,
2013-06-21 01:44:00,52.3,47.0,29.95,SSW,208,0.0,0.0,82,0.00,CLR,,0.00,WeatherDisplay:10.37,2013-06-21 08:44:00,
2013-06-21 01:49:00,52.6,47.3,29.95,SSW,208,0.0,0.0,82,0.00,CLR,,0.00,WeatherDisplay:10.37,2013-06-21 08:49:00,
2013-06-21 01:54:00,52.5,47.5,29.95,SSW,208,1.1,1.1,83,0.00,CLR,,0.00,WeatherDisplay:10.37,2013-06-21 08:54:00,
2013-06-21 01:59:00,52.2,47.2,29.95,SSW,208,0.0,0.0,83,0.00,CLR,,0.00,WeatherDisplay:10.37,2013-06-21 08:59:00,
2013-06-21 02:04:00,52.0,46.0,29.95,SSW,208,1.1,1.1,80,0.00,CLR,,0.00,WeatherDisplay:10.37,2013-06-21 09:04:00,
2013-06-21 02:09:00,51.8,46.2,29.95,SSW,208,0.0,0.0,81,0.00,CLR,,0.00,WeatherDisplay:10.37,2013-06-21 09:09:00,
2013-06-21 02:14:00,51.8,46.2,29.95,SSW,208,0.0,0.0,81,0.00,CLR,,0.00,WeatherDisplay:10.37,2013-06-21 09:14:00,
2013-06-21 02:19:00,52.0,47.0,29.95,West,277,1.1,1.1,83,0.00,CLR,,0.00,WeatherDisplay:10.37,2013-06-21 09:19:00,
2013-06-21 02:24:00,52.5,47.2,29.95,West,276,0.0,0.0,82,0.00,CLR,,0.00,WeatherDisplay:10.37,2013-06-21 09:24:00,
2013-06-21 02:29:00,52.4,47.1,29.95,West,277,0.0,0.0,82,0.00,CLR,,0.00,WeatherDisplay:10.37,2013-06-21 09:29:00,
2013-06-21 02:34:00,52.1,46.4,29.95,West,276,0.0,0.0,81,0.00,CLR,,0.00,WeatherDisplay:10.37,2013-06-21 09:34:00,
2013-06-21 02:39:00,51.7,46.7,29.95,West,276,0.0,0.0,83,0.00,CLR,,0.00,WeatherDisplay:10.37,2013-06-21 09:39:00,
2013-06-21 02:44:00,51.6,46.6,29.95,West,277,0.0,0.1,83,0.00,CLR,,0.00,WeatherDisplay:10.37,2013-06-21 09:44:00,
2013-06-21 02:49:00,51.5,46.5,29.95,West,277,1.1,1.1,83,0.00,CLR,,0.00,WeatherDisplay:10.37,2013-06-21 09:49:00,
2013-06-21 02:54:00,51.4,46.1,29.95,West,276,0.0,0.0,82,0.00,CLR,,0.00,WeatherDisplay:10.37,2013-06-21 09:54:00,
2013-06-21 02:59:00,51.1,45.8,29.95,West,277,0.0,0.0,82,0.00,CLR,,0.00,WeatherDisplay:10.37,2013-06-21 09:59:00,
2013-06-21 03:04:00,50.8,45.5,29.95,West,276,0.0,0.0,82,0.00,CLR,,0.00,WeatherDisplay:10.37,2013-06-21 10:04:00,
2013-06-21 03:09:00,50.4,45.4,29.95,West,276,0.0,0.0,83,0.00,CLR,,0.00,WeatherDisplay:10.37,2013-06-21 10:09:00,
2013-06-21 03:14:00,50.0,45.4,29.95,West,277,0.0,0.0,84,0.00,CLR,,0.00,WeatherDisplay:10.37,2013-06-21 10:14:00,
2013-06-21 03:19:00,50.0,46.0,29.94,West,276,0.0,0.0,86,0.00,CLR,,0.00,WeatherDisplay:10.37,2013-06-21 10:19:00,
2013-06-21 03:24:00,50.7,46.7,29.94,West,276,0.0,0.0,86,0.00,CLR,,0.00,WeatherDisplay:10.37,2013-06-21 10:24:00,
2013-06-21 03:29:00,50.2,45.2,29.94,North,356,2.3,2.3,83,0.00,CLR,,0.00,WeatherDisplay:10.37,2013-06-21 10:29:00,
2013-06-21 03:34:00,49.6,44.3,29.94,NNW,342,1.1,1.1,82,0.00,CLR,,0.00,WeatherDisplay:10.37,2013-06-21 10:34:00,
2013-06-21 03:39:00,49.9,45.6,29.94,NNW,342,0.0,0.0,85,0.00,CLR,,0.00,WeatherDisplay:10.37,2013-06-21 10:39:00,
2013-06-21 03:44:00,50.3,46.0,29.94,NNW,342,0.0,0.0,85,0.00,CLR,,0.00,WeatherDisplay:10.37,2013-06-21 10:44:00,
2013-06-21 03:49:00,50.3,45.6,29.94,NNW,342,0.0,0.0,84,0.00,CLR,,0.00,WeatherDisplay:10.37,2013-06-21 10:49:00,
2013-06-21 03:54:00,49.7,44.1,29.94,NNW,343,0.0,0.0,81,0.00,CLR,,0.00,WeatherDisplay:10.37,2013-06-21 10:54:00,
2013-06-21 03:59:00,48.8,43.9,29.95,NNW,342,1.1,1.1,83,0.00,CLR,,0.00,WeatherDisplay:10.37,2013-06-21 10:59:00,
2013-06-21 04:04:00,48.7,44.4,29.95,NNW,343,0.0,0.0,85,0.00,CLR,,0.00,WeatherDisplay:10.37,2013-06-21 11:04:00,
2013-06-21 04:09:00,48.7,44.4,29.95,NNW,344,0.0,0.0,85,0.00,CLR,,0.00,WeatherDisplay:10.37,2013-06-21 11:09:00,
2013-06-21 04:14:00,48.5,44.2,29.95,NNW,342,0.0,0.0,85,0.00,CLR,,0.00,WeatherDisplay:10.37,2013-06-21 11:14:00,
2013-06-21 04:19:00,48.6,44.9,29.95,NNW,342,0.0,0.0,87,0.00,CLR,,0.00,WeatherDisplay:10.37,2013-06-21 11:19:00,
2013-06-21 04:24:00,48.7,45.0,29.95,NNW,342,0.0,0.0,87,0.00,CLR,,0.00,WeatherDisplay:10.37,2013-06-21 11:24:00,
2013-06-21 04:29:00,48.9,45.5,29.95,NNW,343,0.0,0.0,88,0.00,CLR,,0.00,WeatherDisplay:10.37,2013-06-21 11:29:00,
2013-06-21 04:34:00,49.0,45.3,29.95,NNW,342,0.0,0.0,87,0.00,CLR,,0.00,WeatherDisplay:10.37,2013-06-21 11:34:00,
2013-06-21 04:39:00,49.1,45.4,29.95,NNW,342,0.0,0.0,87,0.00,CLR,,0.00,WeatherDisplay:10.37,2013-06-21 11:39:00,
2013-06-21 04:44:00,48.6,44.0,29.95,NNW,343,0.0,0.1,84,0.00,CLR,,0.00,WeatherDisplay:10.37,2013-06-21 11:44:00,
2013-06-21 04:49:00,48.0,43.7,29.95,NNW,345,0.0,0.0,85,0.00,CLR,,0.00,WeatherDisplay:10.37,2013-06-21 11:49:00,
2013-06-21 04:54:00,48.0,44.6,29.95,NNW,345,1.1,0.0,88,0.00,CLR,,0.00,WeatherDisplay:10.37,2013-06-21 11:54:00,
2013-06-21 04:59:00,47.8,44.1,29.95,NNW,345,0.0,0.0,87,0.00,CLR,,0.00,WeatherDisplay:10.37,2013-06-21 11:59:00,
2013-06-21 05:04:00,47.7,44.3,29.95,NNW,345,0.0,0.0,88,0.00,CLR,,0.00,WeatherDisplay:10.37,2013-06-21 12:04:00,
2013-06-21 05:09:00,47.9,44.5,29.95,NNW,345,0.0,0.0,88,0.00,CLR,,0.00,WeatherDisplay:10.37,2013-06-21 12:09:00,
2013-06-21 05:14:00,47.8,44.4,29.95,NNW,345,0.0,0.0,88,0.00,CLR,,0.00,WeatherDisplay:10.37,2013-06-21 12:14:00,
2013-06-21 05:19:00,47.6,44.2,29.95,NNW,345,0.0,0.0,88,0.00,CLR,,0.00,WeatherDisplay:10.37,2013-06-21 12:19:00,
2013-06-21 05:24:00,47.3,43.9,29.95,NNW,344,0.0,0.0,88,0.00,CLR,,0.00,WeatherDisplay:10.37,2013-06-21 12:24:00,
2013-06-21 05:29:00,47.1,44.0,29.95,NNW,345,0.0,0.0,89,0.00,CLR,,0.00,WeatherDisplay:10.37,2013-06-21 12:29:00,
2013-06-21 05:34:00,47.1,44.0,29.95,NNW,345,0.0,0.0,89,0.00,CLR,,0.00,WeatherDisplay:10.37,2013-06-21 12:34:00,
2013-06-21 05:39:00,47.0,44.2,29.95,NNW,345,0.0,0.0,90,0.00,CLR,,0.00,WeatherDisplay:10.37,2013-06-21 12:39:00,
2013-06-21 05:44:00,47.4,44.9,29.95,NNW,345,0.0,0.0,91,0.00,CLR,,0.00,WeatherDisplay:10.37,2013-06-21 12:44:00,
2013-06-21 05:49:00,47.6,44.8,29.95,NNW,344,0.0,0.0,90,0.00,CLR,,0.00,WeatherDisplay:10.37,2013-06-21 12:49:00,
2013-06-21 05:54:00,47.7,44.9,29.95,NNW,344,0.0,0.0,90,0.00,CLR,,0.00,WeatherDisplay:10.37,2013-06-21 12:54:00,
2013-06-21 05:59:00,47.7,44.6,29.96,NNW,345,0.0,0.0,89,0.00,CLR,,0.00,WeatherDisplay:10.37,2013-06-21 12:59:00,
2013-06-21 06:04:00,47.6,44.5,29.96,NNW,345,0.0,0.0,89,0.00,CLR,,0.00,WeatherDisplay:10.37,2013-06-21 13:04:00,
2013-06-21 06:09:00,46.6,42.9,29.96,NNW,345,0.0,0.0,87,0.00,CLR,,0.00,WeatherDisplay:10.37,2013-06-21 13:09:00,
2013-06-21 06:14:00,46.3,42.9,29.96,NNW,345,0.0,0.0,88,0.00,CLR,,0.00,WeatherDisplay:10.37,2013-06-21 13:14:00,
2013-06-21 06:19:00,46.4,43.3,29.96,NNW,344,0.0,0.0,89,0.00,CLR,,0.00,WeatherDisplay:10.37,2013-06-21 13:19:00,
2013-06-21 06:24:00,46.5,43.7,29.96,NNW,345,0.0,0.0,90,0.00,CLR,,0.00,WeatherDisplay:10.37,2013-06-21 13:24:00,
2013-06-21 06:29:00,46.6,43.8,29.96,NNW,345,0.0,0.0,90,0.00,CLR,,0.00,WeatherDisplay:10.37,2013-06-21 13:29:00,
2013-06-21 06:34:00,47.0,43.9,29.97,NNW,344,0.0,0.0,89,0.00,CLR,,0.00,WeatherDisplay:10.37,2013-06-21 13:34:00,
2013-06-21 06:39:00,47.6,44.8,29.97,NNW,345,0.0,0.0,90,0.00,CLR,,0.00,WeatherDisplay:10.37,2013-06-21 13:39:00,
2013-06-21 06:44:00,48.3,45.2,29.97,NNW,345,1.0,0.0,89,0.00,CLR,,0.00,WeatherDisplay:10.37,2013-06-21 13:44:00,
2013-06-21 06:49:00,49.1,45.7,29.97,NNW,347,1.1,1.1,88,0.00,CLR,,0.00,WeatherDisplay:10.37,2013-06-21 13:49:00,
2013-06-21 06:54:00,50.1,46.1,29.97,NNW,347,1.1,1.1,86,0.00,CLR,,0.00,WeatherDisplay:10.37,2013-06-21 13:54:00,
2013-06-21 06:59:00,51.0,46.6,29.97,NNW,347,0.0,0.0,85,0.00,CLR,,0.00,WeatherDisplay:10.37,2013-06-21 13:59:00,
2013-06-21 07:04:00,51.8,47.1,29.97,NNW,347,0.0,0.0,84,0.00,CLR,,0.00,WeatherDisplay:10.37,2013-06-21 14:04:00,
2013-06-21 07:09:00,52.2,47.2,29.97,North,4,2.3,2.3,83,0.00,CLR,,0.00,WeatherDisplay:10.37,2013-06-21 14:09:00,
2013-06-21 07:14:00,52.6,47.3,29.97,NNE,18,0.0,0.0,82,0.00,CLR,,0.00,WeatherDisplay:10.37,2013-06-21 14:14:00,
2013-06-21 07:19:00,53.4,48.0,29.97,NNE,17,0.0,0.0,82,0.00,CLR,,0.00,WeatherDisplay:10.37,2013-06-21 14:19:00,
2013-06-21 07:24:00,54.1,48.4,29.97,NNE,17,1.1,1.1,81,0.00,CLR,,0.00,WeatherDisplay:10.37,2013-06-21 14:24:00,
2013-06-21 07:29:00,55.1,49.4,29.97,SSE,150,0.0,0.0,81,0.00,CLR,,0.00,WeatherDisplay:10.37,2013-06-21 14:29:00,
2013-06-21 07:34:00,56.7,50.3,29.97,SSE,165,0.0,0.0,79,0.00,CLR,,0.00,WeatherDisplay:10.37,2013-06-21 14:34:00,
2013-06-21 07:39:00,57.9,50.0,29.96,SSE,149,1.1,1.1,75,0.00,CLR,,0.00,WeatherDisplay:10.37,2013-06-21 14:39:00,
2013-06-21 07:44:00,58.7,50.1,29.97,South,169,3.5,3.5,73,0.00,CLR,,0.00,WeatherDisplay:10.37,2013-06-21 14:44:00,
2013-06-21 07:49:00,59.1,50.1,29.97,SW,215,1.0,1.0,72,0.00,CLR,,0.00,WeatherDisplay:10.37,2013-06-21 14:49:00,
2013-06-21 07:54:00,59.7,50.3,29.97,SSE,158,3.5,3.5,71,0.00,CLR,,0.00,WeatherDisplay:10.37,2013-06-21 14:54:00,
2013-06-21 07:59:00,59.9,50.1,29.97,SSW,197,2.3,2.3,70,0.00,CLR,,0.00,WeatherDisplay:10.37,2013-06-21 14:59:00,
2013-06-21 08:04:00,60.0,49.8,29.97,SSW,197,4.0,4.0,69,0.00,CLR,,0.00,WeatherDisplay:10.37,2013-06-21 15:04:00,
2013-06-21 08:10:00,59.6,49.8,29.97,SSE,163,3.5,3.5,70,0.00,CLR,,0.00,WeatherDisplay:10.37,2013-06-21 15:10:00,
2013-06-21 08:15:00,59.7,49.9,29.97,SSW,212,3.0,3.0,70,0.00,CLR,,0.00,WeatherDisplay:10.37,2013-06-21 15:15:00,
2013-06-21 08:20:00,59.8,50.0,29.97,SW,214,3.5,3.5,70,0.00,CLR,,0.00,WeatherDisplay:10.37,2013-06-21 15:20:00,
2013-06-21 08:25:00,60.3,50.1,29.97,South,176,2.0,2.0,69,0.00,CLR,,0.00,WeatherDisplay:10.37,2013-06-21 15:25:00,
2013-06-21 08:30:00,60.8,49.8,29.97,SSE,162,3.5,3.5,67,0.00,CLR,,0.00,WeatherDisplay:10.37,2013-06-21 15:30:00,
2013-06-21 08:35:00,61.5,50.4,29.98,SE,134,1.1,1.1,67,0.00,CLR,,0.00,WeatherDisplay:10.37,2013-06-21 15:35:00,
2013-06-21 08:40:00,62.0,49.7,29.98,South,173,2.3,2.3,64,0.00,CLR,,0.00,WeatherDisplay:10.37,2013-06-21 15:40:00,
2013-06-21 08:45:00,62.3,50.0,29.98,SSE,163,1.1,0.0,64,0.00,CLR,,0.00,WeatherDisplay:10.37,2013-06-21 15:45:00,
2013-06-21 08:50:00,62.8,49.6,29.98,SSW,207,1.0,1.0,62,0.00,CLR,,0.00,WeatherDisplay:10.37,2013-06-21 15:50:00,
2013-06-21 08:55:00,63.0,50.2,29.98,South,176,1.1,1.3,63,0.00,CLR,,0.00,WeatherDisplay:10.37,2013-06-21 15:55:00,
2013-06-21 09:00:00,63.3,50.5,29.98,NE,52,2.0,2.0,63,0.00,CLR,,0.00,WeatherDisplay:10.37,2013-06-21 16:00:00,
2013-06-21 09:05:00,63.7,50.0,29.98,South,176,1.1,1.1,61,0.00,CLR,,0.00,WeatherDisplay:10.37,2013-06-21 16:05:00,
2013-06-21 09:11:00,64.1,49.9,29.98,NNW,340,1.1,1.1,60,0.00,CLR,,0.00,WeatherDisplay:10.37,2013-06-21 16:11:00,
2013-06-21 09:16:00,64.1,49.5,29.97,SSW,203,2.3,2.3,59,0.00,CLR,,0.00,WeatherDisplay:10.37,2013-06-21 16:16:00,
2013-06-21 09:21:00,64.1,49.5,29.97,SSW,197,1.1,0.0,59,0.00,CLR,,0.00,WeatherDisplay:10.37,2013-06-21 16:21:00,
2013-06-21 09:26:00,64.5,49.8,29.97,SE,139,2.3,2.3,59,0.00,CLR,,0.00,WeatherDisplay:10.37,2013-06-21 16:26:00,
2013-06-21 09:31:00,64.7,50.0,29.97,NE,52,3.5,3.5,59,0.00,CLR,,0.00,WeatherDisplay:10.37,2013-06-21 16:31:00,
2013-06-21 09:36:00,64.9,50.2,29.97,East,88,2.0,2.0,59,0.00,CLR,,0.00,WeatherDisplay:10.37,2013-06-21 16:36:00,
2013-06-21 09:41:00,65.5,51.2,29.97,ESE,105,1.0,1.0,60,0.00,CLR,,0.00,WeatherDisplay:10.37,2013-06-21 16:41:00,
2013-06-21 09:46:00,66.3,50.1,29.97,East,92,2.3,2.3,56,0.00,CLR,,0.00,WeatherDisplay:10.37,2013-06-21 16:46:00,
2013-06-21 09:51:00,66.7,50.5,29.97,WSW,249,3.5,3.5,56,0.00,CLR,,0.00,WeatherDisplay:10.37,2013-06-21 16:51:00,
2013-06-21 09:56:00,66.9,50.2,29.96,South,190,3.5,3.5,55,0.00,CLR,,0.00,WeatherDisplay:10.37,2013-06-21 16:56:00,
2013-06-21 10:01:00,67.2,50.0,29.96,SSW,211,0.0,0.0,54,0.00,CLR,,0.00,WeatherDisplay:10.37,2013-06-21 17:01:00,
2013-06-21 10:06:00,67.5,50.3,29.96,NNW,340,3.5,3.5,54,0.00,CLR,,0.00,WeatherDisplay:10.37,2013-06-21 17:06:00,
2013-06-21 10:12:00,68.3,50.5,29.96,WSW,246,2.3,2.3,53,0.00,CLR,,0.00,WeatherDisplay:10.37,2013-06-21 17:12:00,
2013-06-21 10:17:00,69.0,50.6,29.96,ENE,60,2.0,2.0,52,0.00,CLR,,0.00,WeatherDisplay:10.37,2013-06-21 17:17:00,
2013-06-21 10:22:00,69.5,51.1,29.96,East,97,1.1,1.1,52,0.00,CLR,,0.00,WeatherDisplay:10.37,2013-06-21 17:22:00,
2013-06-21 10:27:00,70.1,51.7,29.96,SSE,152,3.5,3.5,52,0.00,CLR,,0.00,WeatherDisplay:10.37,2013-06-21 17:27:00,
2013-06-21 10:32:00,70.5,51.5,29.96,SSE,165,3.0,3.0,51,0.00,CLR,,0.00,WeatherDisplay:10.37,2013-06-21 17:32:00,
2013-06-21 10:38:00,71.1,51.5,29.95,SSE,165,3.5,3.5,50,0.00,CLR,,0.00,WeatherDisplay:10.37,2013-06-21 17:38:00,
2013-06-21 10:43:00,71.6,50.9,29.95,SE,143,1.1,1.1,48,0.00,CLR,,0.00,WeatherDisplay:10.37,2013-06-21 17:43:00,
2013-06-21 10:46:00,71.9,51.7,29.95,South,170,3.5,3.5,49,0.00,CLR,,0.00,WeatherDisplay:10.37,2013-06-21 17:46:00,
2013-06-21 10:47:00,72.0,51.2,29.95,SSE,153,2.3,2.3,48,0.00,CLR,,0.00,WeatherDisplay:10.37,2013-06-21 17:47:00,
2013-06-21 10:48:00,72.0,51.2,29.95,SSE,153,2.3,2.3,48,0.00,CLR,,0.00,WeatherDisplay:10.37,2013-06-21 17:48:00,
2013-06-21 10:49:00,72.2,52.0,29.95,SSE,163,1.1,0.0,49,0.00,CLR,,0.00,WeatherDisplay:10.37,2013-06-21 17:49:00,
2013-06-21 10:52:00,72.8,52.0,29.95,ENE,72,2.0,2.0,48,0.00,CLR,,0.00,WeatherDisplay:10.37,2013-06-21 17:52:00,
2013-06-21 10:57:00,73.5,52.0,29.95,SSW,195,2.3,2.3,47,0.00,CLR,,0.00,WeatherDisplay:10.37,2013-06-21 17:57:00,
2013-06-21 11:02:00,74.4,52.3,29.95,SW,217,3.5,3.5,46,0.00,CLR,,0.00,WeatherDisplay:10.37,2013-06-21 18:02:00,
2013-06-21 11:07:00,75.1,52.9,29.95,SE,135,2.3,2.3,46,0.00,CLR,,0.00,WeatherDisplay:10.37,2013-06-21 18:07:00,
2013-06-21 11:13:00,75.7,52.2,29.95,SSE,162,4.6,4.6,44,0.00,CLR,,0.00,WeatherDisplay:10.37,2013-06-21 18:13:00,
2013-06-21 11:18:00,76.4,52.9,29.95,SE,129,5.8,5.8,44,0.00,CLR,,0.00,WeatherDisplay:10.37,2013-06-21 18:18:00,
2013-06-21 11:23:00,77.0,52.8,29.95,SE,146,3.5,3.5,43,0.00,CLR,,0.00,WeatherDisplay:10.37,2013-06-21 18:23:00,
2013-06-21 11:24:00,76.9,52.7,29.95,SE,128,3.5,3.5,43,0.00,CLR,,0.00,WeatherDisplay:10.37,2013-06-21 18:24:00,
2013-06-21 11:25:00,76.9,53.3,29.95,SE,126,3.5,3.5,44,0.00,CLR,,0.00,WeatherDisplay:10.37,2013-06-21 18:25:00,
2013-06-21 11:27:00,77.0,52.8,29.95,ESE,115,3.5,3.5,43,0.00,CLR,,0.00,WeatherDisplay:10.37,2013-06-21 18:27:00,
2013-06-21 11:32:00,77.9,53.6,29.95,South,175,4.6,4.6,43,0.00,CLR,,0.00,WeatherDisplay:10.37,2013-06-21 18:32:00,
2013-06-21 11:37:00,78.4,53.4,29.94,ESE,115,3.5,3.5,42,0.00,CLR,,0.00,WeatherDisplay:10.37,2013-06-21 18:37:00,
2013-06-21 11:43:00,79.5,53.7,29.94,SE,129,2.3,2.3,41,0.00,CLR,,0.00,WeatherDisplay:10.37,2013-06-21 18:43:00,
2013-06-21 11:45:00,79.7,52.5,29.94,South,182,5.8,5.8,39,0.00,CLR,,0.00,WeatherDisplay:10.37,2013-06-21 18:45:00,
2013-06-21 11:46:00,79.7,53.2,29.94,SSE,166,5.8,5.8,40,0.00,CLR,,0.00,WeatherDisplay:10.37,2013-06-21 18:46:00,
2013-06-21 11:47:00,79.9,52.7,29.94,West,260,3.5,3.5,39,0.00,CLR,,0.00,WeatherDisplay:10.37,2013-06-21 18:47:00,
2013-06-21 11:48:00,80.1,52.2,29.94,SSW,195,3.5,3.5,38,0.00,CLR,,0.00,WeatherDisplay:10.37,2013-06-21 18:48:00,
2013-06-21 11:49:00,80.6,51.9,29.94,South,190,2.3,2.3,37,0.00,CLR,,0.00,WeatherDisplay:10.37,2013-06-21 18:49:00,
2013-06-21 11:54:00,81.5,54.2,29.94,ESE,122,3.0,3.0,39,0.00,CLR,,0.00,WeatherDisplay:10.37,2013-06-21 18:54:00,
2013-06-21 11:59:00,81.9,53.1,29.94,SSE,153,4.6,4.6,37,0.00,CLR,,0.00,WeatherDisplay:10.37,2013-06-21 18:59:00,
2013-06-21 12:04:00,82.1,52.5,29.94,SE,129,3.5,3.5,36,0.00,CLR,,0.00,WeatherDisplay:10.37,2013-06-21 19:04:00,
2013-06-21 12:09:00,82.6,52.9,29.94,SSE,158,5.0,5.0,36,0.00,CLR,,0.00,WeatherDisplay:10.37,2013-06-21 19:09:00,
2013-06-21 12:14:00,82.9,50.8,29.94,South,176,5.0,5.0,33,0.00,CLR,,0.00,WeatherDisplay:10.37,2013-06-21 19:14:00,
2013-06-21 12:19:00,83.4,52.1,29.93,SSW,195,4.6,4.6,34,0.00,CLR,,0.00,WeatherDisplay:10.37,2013-06-21 19:19:00,
2013-06-21 12:20:00,83.6,52.3,29.93,SSE,150,3.5,3.5,34,0.00,CLR,,0.00,WeatherDisplay:10.37,2013-06-21 19:20:00,
2013-06-21 12:26:00,84.4,52.1,29.93,SSW,195,3.5,3.5,33,0.00,CLR,,0.00,WeatherDisplay:10.37,2013-06-21 19:26:00,
2013-06-21 12:31:00,85.4,49.5,29.93,SSW,201,4.6,4.6,29,0.00,CLR,,0.00,WeatherDisplay:10.37,2013-06-21 19:31:00,
2013-06-21 12:36:00,86.1,47.2,29.93,SW,232,5.8,5.8,26,0.00,CLR,,0.00,WeatherDisplay:10.37,2013-06-21 19:36:00,
2013-06-21 12:41:00,87.1,48.1,29.93,SW,233,3.5,3.5,26,0.00,CLR,,0.00,WeatherDisplay:10.37,2013-06-21 19:41:00,
2013-06-21 12:43:00,87.4,48.3,29.93,South,175,3.5,3.5,26,0.00,CLR,,0.00,WeatherDisplay:10.37,2013-06-21 19:43:00,
2013-06-21 12:48:00,88.3,48.0,29.93,South,170,3.5,3.5,25,0.00,CLR,,0.00,WeatherDisplay:10.37,2013-06-21 19:48:00,
2013-06-21 12:53:00,89.5,51.1,29.93,SSE,163,3.5,3.5,27,0.00,CLR,,0.00,WeatherDisplay:10.37,2013-06-21 19:53:00,
2013-06-21 12:58:00,90.0,51.5,29.92,SW,219,2.0,2.0,27,0.00,CLR,,0.00,WeatherDisplay:10.37,2013-06-21 19:58:00,
2013-06-21 13:03:00,90.0,48.4,29.92,WSW,248,2.3,2.3,24,0.00,CLR,,0.00,WeatherDisplay:10.37,2013-06-21 20:03:00,
2013-06-21 13:06:00,90.5,48.8,29.92,South,172,3.5,3.5,24,0.00,CLR,,0.00,WeatherDisplay:10.37,2013-06-21 20:06:00,
2013-06-21 13:11:00,91.4,47.2,29.92,ESE,123,2.3,2.3,22,0.00,CLR,,0.00,WeatherDisplay:10.37,2013-06-21 20:11:00,
2013-06-21 13:14:00,91.5,46.1,29.92,South,181,5.8,5.8,21,0.00,CLR,,0.00,WeatherDisplay:10.37,2013-06-21 20:14:00,
2013-06-21 13:19:00,90.0,46.0,29.92,West,266,1.1,1.1,22,0.00,CLR,,0.00,WeatherDisplay:10.37,2013-06-21 20:19:00,
2013-06-21 13:24:00,89.4,51.0,29.92,ESE,102,8.1,8.1,27,0.00,CLR,,0.00,WeatherDisplay:10.37,2013-06-21 20:24:00,
2013-06-21 13:29:00,88.2,50.0,29.92,SE,136,8.1,8.1,27,0.00,CLR,,0.00,WeatherDisplay:10.37,2013-06-21 20:29:00,
2013-06-21 13:34:00,87.6,48.5,29.92,South,186,6.9,6.9,26,0.00,CLR,,0.00,WeatherDisplay:10.37,2013-06-21 20:34:00,
2013-06-21 13:39:00,88.2,49.0,29.91,ESE,118,2.3,2.3,26,0.00,CLR,,0.00,WeatherDisplay:10.37,2013-06-21 20:39:00,
2013-06-21 13:44:00,89.0,49.7,29.91,SE,145,3.5,3.5,26,0.00,CLR,,0.00,WeatherDisplay:10.37,2013-06-21 20:44:00,
2013-06-21 13:49:00,89.7,49.2,29.91,SSE,156,4.0,4.0,25,0.00,CLR,,0.00,WeatherDisplay:10.37,2013-06-21 20:49:00,
2013-06-21 13:55:00,89.4,48.9,29.91,SSE,160,8.1,8.1,25,0.00,CLR,,0.00,WeatherDisplay:10.37,2013-06-21 20:55:00,
2013-06-21 14:00:00,89.3,48.9,29.91,SSE,162,8.1,8.1,25,0.00,CLR,,0.00,WeatherDisplay:10.37,2013-06-21 21:00:00,
2013-06-21 14:05:00,89.3,48.9,29.91,ESE,118,5.8,5.8,25,0.00,CLR,,0.00,WeatherDisplay:10.37,2013-06-21 21:05:00,
2013-06-21 14:10:00,89.5,47.9,29.91,SSE,152,7.0,7.0,24,0.00,CLR,,0.00,WeatherDisplay:10.37,2013-06-21 21:10:00,
2013-06-21 14:15:00,88.8,48.4,29.90,SSE,159,7.0,7.0,25,0.00,CLR,,0.00,WeatherDisplay:10.37,2013-06-21 21:15:00,
2013-06-21 14:20:00,89.6,48.0,29.90,SSE,153,4.6,4.6,24,0.00,CLR,,0.00,WeatherDisplay:10.37,2013-06-21 21:20:00,
2013-06-21 14:25:00,89.5,49.0,29.90,South,170,4.6,4.6,25,0.00,CLR,,0.00,WeatherDisplay:10.37,2013-06-21 21:25:00,
2013-06-21 14:30:00,90.5,48.8,29.90,SSE,149,4.6,4.6,24,0.00,CLR,,0.00,WeatherDisplay:10.37,2013-06-21 21:30:00,
2013-06-21 14:35:00,90.2,48.5,29.90,South,174,17.0,17.0,24,0.00,CLR,,0.00,WeatherDisplay:10.37,2013-06-21 21:35:00,
2013-06-21 14:40:00,88.8,47.4,29.90,South,187,9.2,9.2,24,0.00,CLR,,0.00,WeatherDisplay:10.37,2013-06-21 21:40:00,
2013-06-21 14:45:00,88.5,48.2,29.90,SSE,148,6.9,6.9,25,0.00,CLR,,0.00,WeatherDisplay:10.37,2013-06-21 21:45:00,
2013-06-21 14:50:00,88.7,47.3,29.90,South,187,9.2,9.2,24,0.00,CLR,,0.00,WeatherDisplay:10.37,2013-06-21 21:50:00,
2013-06-21 14:55:00,89.5,47.9,29.90,South,191,5.8,5.8,24,0.00,CLR,,0.00,WeatherDisplay:10.37,2013-06-21 21:55:00,
2013-06-21 15:00:00,89.5,46.8,29.90,SSE,153,9.0,9.0,23,0.00,CLR,,0.00,WeatherDisplay:10.37,2013-06-21 22:00:00,
2013-06-21 15:05:00,89.6,48.0,29.90,SSW,200,5.8,5.8,24,0.00,CLR,,0.00,WeatherDisplay:10.37,2013-06-21 22:05:00,
2013-06-21 15:10:00,90.1,47.3,29.89,SSW,194,4.6,4.9,23,0.00,CLR,,0.00,WeatherDisplay:10.37,2013-06-21 22:10:00,
2013-06-21 15:16:00,90.1,47.3,29.89,SSE,160,6.9,6.9,23,0.00,CLR,,0.00,WeatherDisplay:10.37,2013-06-21 22:16:00,
2013-06-21 15:21:00,90.1,46.1,29.89,SSE,160,11.5,11.5,22,0.00,CLR,,0.00,WeatherDisplay:10.37,2013-06-21 22:21:00,
2013-06-21 15:26:00,89.3,46.6,29.89,SSE,167,4.0,4.0,23,0.00,CLR,,0.00,WeatherDisplay:10.37,2013-06-21 22:26:00,
2013-06-21 15:31:00,88.5,48.2,29.89,SE,126,5.8,5.8,25,0.00,CLR,,0.00,WeatherDisplay:10.37,2013-06-21 22:31:00,
2013-06-21 15:36:00,87.9,47.7,29.89,SW,229,11.5,11.5,25,0.00,CLR,,0.00,WeatherDisplay:10.37,2013-06-21 22:36:00,
2013-06-21 15:41:00,88.0,45.6,29.89,SSE,167,6.9,6.9,23,0.00,CLR,,0.00,WeatherDisplay:10.37,2013-06-21 22:41:00,
2013-06-21 15:46:00,87.7,47.5,29.89,ESE,117,5.8,5.8,25,0.00,CLR,,0.00,WeatherDisplay:10.37,2013-06-21 22:46:00,
2013-06-21 15:51:00,87.3,48.2,29.89,ESE,121,3.5,3.5,26,0.00,CLR,,0.00,WeatherDisplay:10.37,2013-06-21 22:51:00,
2013-06-21 15:56:00,87.0,46.9,29.89,ENE,74,6.9,6.9,25,0.00,CLR,,0.00,WeatherDisplay:10.37,2013-06-21 22:56:00,
2013-06-21 16:01:00,86.5,45.4,29.89,SSE,154,9.0,9.0,24,0.00,CLR,,0.00,WeatherDisplay:10.37,2013-06-21 23:01:00,
2013-06-21 16:06:00,86.1,46.2,29.88,SSE,153,8.1,8.1,25,0.00,CLR,,0.00,WeatherDisplay:10.37,2013-06-21 23:06:00,
2013-06-21 16:11:00,85.6,47.8,29.89,ESE,123,4.6,4.6,27,0.00,CLR,,0.00,WeatherDisplay:10.37,2013-06-21 23:11:00,
2013-06-21 16:16:00,84.5,49.7,29.89,ESE,111,5.8,5.8,30,0.00,CLR,,0.00,WeatherDisplay:10.37,2013-06-21 23:16:00,
2013-06-21 16:21:00,84.1,48.4,29.89,SE,134,4.6,4.6,29,0.00,CLR,,0.00,WeatherDisplay:10.37,2013-06-21 23:21:00,
2013-06-21 16:26:00,83.9,49.1,29.89,ESE,107,5.8,5.8,30,0.00,CLR,,0.00,WeatherDisplay:10.37,2013-06-21 23:26:00,
2013-06-21 16:31:00,84.0,49.2,29.89,NW,311,8.1,8.1,30,0.00,CLR,,0.00,WeatherDisplay:10.37,2013-06-21 23:31:00,
2013-06-21 16:36:00,84.2,48.5,29.88,SE,146,10.4,10.4,29,0.00,CLR,,0.00,WeatherDisplay:10.37,2013-06-21 23:36:00,
2013-06-21 16:41:00,84.6,47.9,29.89,SE,139,5.8,5.8,28,0.00,CLR,,0.00,WeatherDisplay:10.37,2013-06-21 23:41:00,
2013-06-21 16:46:00,84.7,48.9,29.88,SE,126,3.5,3.5,29,0.00,CLR,,0.00,WeatherDisplay:10.37,2013-06-21 23:46:00,
2013-06-21 16:51:00,84.4,48.7,29.88,SSW,194,6.9,6.9,29,0.00,CLR,,0.00,WeatherDisplay:10.37,2013-06-21 23:51:00,
2013-06-21 16:56:00,84.3,48.6,29.88,SSW,205,5.8,5.8,29,0.00,CLR,,0.00,WeatherDisplay:10.37,2013-06-21 23:56:00,
2013-06-21 17:01:00,83.7,49.0,29.88,SSW,194,4.6,4.6,30,0.00,CLR,,0.00,WeatherDisplay:10.37,2013-06-22 00:01:00,
2013-06-21 17:06:00,83.8,49.1,29.88,SSE,150,3.5,3.5,30,0.00,CLR,,0.00,WeatherDisplay:10.37,2013-06-22 00:06:00,
2013-06-21 17:11:00,83.7,49.0,29.88,SE,126,5.8,5.8,30,0.00,CLR,,0.00,WeatherDisplay:10.37,2013-06-22 00:11:00,
2013-06-21 17:16:00,83.2,47.6,29.88,SSE,152,6.0,6.0,29,0.00,CLR,,0.00,WeatherDisplay:10.37,2013-06-22 00:16:00,
2013-06-21 17:21:00,83.2,48.5,29.88,SE,133,6.9,6.9,30,0.00,CLR,,0.00,WeatherDisplay:10.37,2013-06-22 00:21:00,
2013-06-21 17:26:00,83.2,46.7,29.88,SSE,166,8.1,8.1,28,0.00,CLR,,0.00,WeatherDisplay:10.37,2013-06-22 00:26:00,
2013-06-21 17:31:00,83.4,47.8,29.88,SSE,157,6.9,6.9,29,0.00,CLR,,0.00,WeatherDisplay:10.37,2013-06-22 00:31:00,
2013-06-21 17:36:00,83.5,47.0,29.87,SSE,156,9.2,9.2,28,0.00,CLR,,0.00,WeatherDisplay:10.37,2013-06-22 00:36:00,
2013-06-21 17:41:00,83.2,49.4,29.87,SE,129,3.5,3.5,31,0.00,CLR,,0.00,WeatherDisplay:10.37,2013-06-22 00:41:00,
2013-06-21 17:46:00,82.8,47.3,29.87,ESE,113,6.9,6.9,29,0.00,CLR,,0.00,WeatherDisplay:10.37,2013-06-22 00:46:00,
2013-06-21 17:51:00,82.5,48.8,29.87,ESE,110,5.0,5.0,31,0.00,CLR,,0.00,WeatherDisplay:10.37,2013-06-22 00:51:00,
2013-06-21 17:56:00,82.2,49.4,29.87,ESE,115,3.5,3.5,32,0.00,CLR,,0.00,WeatherDisplay:10.37,2013-06-22 00:56:00,
2013-06-21 18:01:00,81.9,51.6,29.87,SE,146,6.9,6.9,35,0.00,CLR,,0.00,WeatherDisplay:10.37,2013-06-22 01:01:00,
2013-06-21 18:06:00,81.5,52.0,29.87,SE,134,5.8,5.8,36,0.00,CLR,,0.00,WeatherDisplay:10.37,2013-06-22 01:06:00,
2013-06-21 18:11:00,81.1,53.1,29.87,SE,146,6.9,6.9,38,0.00,CLR,,0.00,WeatherDisplay:10.37,2013-06-22 01:11:00,
2013-06-21 18:16:00,80.4,53.2,29.87,SSE,155,8.1,8.1,39,0.00,CLR,,0.00,WeatherDisplay:10.37,2013-06-22 01:16:00,
2013-06-21 18:21:00,79.8,53.3,29.87,SSE,153,6.9,6.9,40,0.00,CLR,,0.00,WeatherDisplay:10.37,2013-06-22 01:21:00,
2013-06-21 18:26:00,79.6,53.8,29.88,SSE,162,9.2,9.2,41,0.00,CLR,,0.00,WeatherDisplay:10.37,2013-06-22 01:26:00,
2013-06-21 18:31:00,79.2,53.5,29.88,SSE,157,7.0,7.0,41,0.00,CLR,,0.00,WeatherDisplay:10.37,2013-06-22 01:31:00,
2013-06-21 18:36:00,78.9,53.9,29.88,ESE,118,4.6,4.6,42,0.00,CLR,,0.00,WeatherDisplay:10.37,2013-06-22 01:36:00,
2013-06-21 18:41:00,78.5,53.5,29.88,South,181,5.0,5.0,42,0.00,CLR,,0.00,WeatherDisplay:10.37,2013-06-22 01:41:00,
2013-06-21 18:46:00,78.6,54.2,29.88,SSE,150,10.4,10.4,43,0.00,CLR,,0.00,WeatherDisplay:10.37,2013-06-22 01:46:00,
2013-06-21 18:51:00,78.4,54.0,29.88,SSE,150,5.8,5.8,43,0.00,CLR,,0.00,WeatherDisplay:10.37,2013-06-22 01:51:00,
2013-06-21 18:56:00,77.9,54.2,29.88,SSE,166,5.8,5.8,44,0.00,CLR,,0.00,WeatherDisplay:10.37,2013-06-22 01:56:00,
2013-06-21 19:01:00,77.9,54.8,29.88,SE,136,6.9,6.9,45,0.00,CLR,,0.00,WeatherDisplay:10.37,2013-06-22 02:01:00,
2013-06-21 19:06:00,77.4,54.4,29.88,SE,144,11.5,11.5,45,0.00,CLR,,0.00,WeatherDisplay:10.37,2013-06-22 02:06:00,
2013-06-21 19:11:00,77.3,54.3,29.88,SE,146,10.4,10.4,45,0.00,CLR,,0.00,WeatherDisplay:10.37,2013-06-22 02:11:00,
2013-06-21 19:16:00,77.0,54.0,29.88,SSE,158,10.4,10.4,45,0.00,CLR,,0.00,WeatherDisplay:10.37,2013-06-22 02:16:00,
2013-06-21 19:21:00,76.5,54.2,29.88,WSW,245,8.1,8.1,46,0.00,CLR,,0.00,WeatherDisplay:10.37,2013-06-22 02:21:00,
2013-06-21 19:26:00,76.2,54.5,29.89,SSE,166,4.0,4.0,47,0.00,CLR,,0.00,WeatherDisplay:10.37,2013-06-22 02:26:00,
2013-06-21 19:31:00,76.1,54.4,29.89,SSE,168,9.2,9.2,47,0.00,CLR,,0.00,WeatherDisplay:10.37,2013-06-22 02:31:00,
2013-06-21 19:36:00,76.1,55.0,29.88,South,177,3.5,3.5,48,0.00,CLR,,0.00,WeatherDisplay:10.37,2013-06-22 02:36:00,
2013-06-21 19:41:00,75.9,54.2,29.89,SSE,153,9.2,9.2,47,0.00,CLR,,0.00,WeatherDisplay:10.37,2013-06-22 02:41:00,
2013-06-21 19:46:00,75.4,54.3,29.89,SSE,153,11.5,11.5,48,0.00,CLR,,0.00,WeatherDisplay:10.37,2013-06-22 02:46:00,
2013-06-21 19:51:00,75.1,54.6,29.89,SE,124,8.1,8.1,49,0.00,CLR,,0.00,WeatherDisplay:10.37,2013-06-22 02:51:00,
2013-06-21 19:56:00,74.8,54.4,29.89,SSE,157,10.4,10.4,49,0.00,CLR,,0.00,WeatherDisplay:10.37,2013-06-22 02:56:00,
2013-06-21 20:01:00,74.5,54.6,29.89,SSE,163,6.9,6.9,50,0.00,CLR,,0.00,WeatherDisplay:10.37,2013-06-22 03:01:00,
2013-06-21 20:06:00,74.3,54.5,29.89,SE,142,3.5,3.5,50,0.00,CLR,,0.00,WeatherDisplay:10.37,2013-06-22 03:06:00,
2013-06-21 20:11:00,73.9,54.6,29.89,SE,146,3.5,3.5,51,0.00,CLR,,0.00,WeatherDisplay:10.37,2013-06-22 03:11:00,
2013-06-21 20:16:00,73.0,54.3,29.89,ESE,120,3.5,3.5,52,0.00,CLR,,0.00,WeatherDisplay:10.37,2013-06-22 03:16:00,
2013-06-21 20:21:00,72.2,54.6,29.89,SE,146,5.0,5.0,54,0.00,CLR,,0.00,WeatherDisplay:10.37,2013-06-22 03:21:00,
2013-06-21 20:26:00,71.6,54.6,29.90,SE,141,3.5,3.5,55,0.00,CLR,,0.00,WeatherDisplay:10.37,2013-06-22 03:26:00,
2013-06-21 20:31:00,71.1,54.6,29.89,SSW,198,4.6,4.6,56,0.00,CLR,,0.00,WeatherDisplay:10.37,2013-06-22 03:31:00,
2013-06-21 20:36:00,70.6,54.6,29.89,SSE,162,5.8,5.8,57,0.00,CLR,,0.00,WeatherDisplay:10.37,2013-06-22 03:36:00,
2013-06-21 20:41:00,70.1,54.6,29.90,South,173,5.8,5.8,58,0.00,CLR,,0.00,WeatherDisplay:10.37,2013-06-22 03:41:00,
2013-06-21 20:46:00,69.8,54.4,29.90,South,170,6.9,6.9,58,0.00,CLR,,0.00,WeatherDisplay:10.37,2013-06-22 03:46:00,
2013-06-21 20:51:00,69.5,54.5,29.90,SSE,159,5.8,5.8,59,0.00,CLR,,0.00,WeatherDisplay:10.37,2013-06-22 03:51:00,
2013-06-21 20:56:00,69.1,54.6,29.90,South,187,5.8,5.8,60,0.00,CLR,,0.00,WeatherDisplay:10.37,2013-06-22 03:56:00,
2013-06-21 21:01:00,68.8,54.8,29.90,South,169,3.5,3.5,61,0.00,CLR,,0.00,WeatherDisplay:10.37,2013-06-22 04:01:00,
2013-06-21 21:02:00,68.7,54.7,29.90,South,191,4.0,4.0,61,0.00,CLR,,0.00,WeatherDisplay:10.37,2013-06-22 04:02:00,
2013-06-21 21:07:00,68.4,54.9,29.90,SSE,162,9.2,9.2,62,0.00,CLR,,0.00,WeatherDisplay:10.37,2013-06-22 04:07:00,
2013-06-21 21:12:00,68.1,55.0,29.90,SW,225,3.5,3.5,63,0.00,CLR,,0.00,WeatherDisplay:10.37,2013-06-22 04:12:00,
2013-06-21 21:17:00,68.0,54.9,29.90,South,176,3.5,3.8,63,0.00,CLR,,0.00,WeatherDisplay:10.37,2013-06-22 04:17:00,
2013-06-21 21:22:00,67.6,55.0,29.90,SSE,165,3.5,3.5,64,0.00,CLR,,0.00,WeatherDisplay:10.37,2013-06-22 04:22:00,
2013-06-21 21:27:00,67.4,54.8,29.90,SE,146,4.0,4.0,64,0.00,CLR,,0.00,WeatherDisplay:10.37,2013-06-22 04:27:00,
2013-06-21 21:32:00,67.1,54.9,29.91,SSE,158,2.3,2.3,65,0.00,CLR,,0.00,WeatherDisplay:10.37,2013-06-22 04:32:00,
2013-06-21 21:37:00,66.7,54.6,29.91,SE,127,3.0,3.0,65,0.00,CLR,,0.00,WeatherDisplay:10.37,2013-06-22 04:37:00,
2013-06-21 21:42:00,66.5,54.4,29.91,SSE,163,3.5,3.7,65,0.00,CLR,,0.00,WeatherDisplay:10.37,2013-06-22 04:42:00,
2013-06-21 21:47:00,66.4,54.3,29.91,SSE,148,4.0,4.0,65,0.00,CLR,,0.00,WeatherDisplay:10.37,2013-06-22 04:47:00,
2013-06-21 21:52:00,66.2,54.5,29.91,SSE,158,1.1,1.1,66,0.00,CLR,,0.00,WeatherDisplay:10.37,2013-06-22 04:52:00,
2013-06-21 21:57:00,65.8,54.1,29.91,SSE,159,2.3,2.3,66,0.00,CLR,,0.00,WeatherDisplay:10.37,2013-06-22 04:57:00,
2013-06-21 22:02:00,65.5,54.2,29.92,SSE,162,3.5,3.5,67,0.00,CLR,,0.00,WeatherDisplay:10.37,2013-06-22 05:02:00,
2013-06-21 22:07:00,65.3,54.5,29.92,SSE,165,2.3,2.3,68,0.00,CLR,,0.00,WeatherDisplay:10.37,2013-06-22 05:07:00,
2013-06-21 22:12:00,65.0,54.2,29.92,South,183,0.0,0.0,68,0.00,CLR,,0.00,WeatherDisplay:10.37,2013-06-22 05:12:00,
2013-06-21 22:17:00,64.6,54.2,29.92,SSW,198,1.1,1.1,69,0.00,CLR,,0.00,WeatherDisplay:10.37,2013-06-22 05:17:00,
2013-06-21 22:22:00,64.1,54.1,29.92,SSW,208,1.1,1.1,70,0.00,CLR,,0.00,WeatherDisplay:10.37,2013-06-22 05:22:00,
2013-06-21 22:27:00,63.7,53.7,29.92,SSW,208,0.0,0.0,70,0.00,CLR,,0.00,WeatherDisplay:10.37,2013-06-22 05:27:00,
2013-06-21 22:32:00,63.1,53.9,29.92,SSE,162,1.1,1.1,72,0.00,CLR,,0.00,WeatherDisplay:10.37,2013-06-22 05:32:00,
2013-06-21 22:37:00,63.0,54.2,29.92,SSE,152,1.1,1.1,73,0.00,CLR,,0.00,WeatherDisplay:10.37,2013-06-22 05:37:00,
2013-06-21 22:42:00,62.9,54.1,29.92,SSE,167,2.3,2.3,73,0.00,CLR,,0.00,WeatherDisplay:10.37,2013-06-22 05:42:00,
2013-06-21 22:47:00,62.9,54.1,29.92,SSW,196,1.1,1.1,73,0.00,CLR,,0.00,WeatherDisplay:10.37,2013-06-22 05:47:00,
2013-06-21 22:52:00,62.8,54.4,29.92,SSE,148,1.1,1.1,74,0.00,CLR,,0.00,WeatherDisplay:10.37,2013-06-22 05:52:00,
2013-06-21 22:57:00,62.6,54.2,29.92,South,170,2.3,2.3,74,0.00,CLR,,0.00,WeatherDisplay:10.37,2013-06-22 05:57:00,
2013-06-21 23:02:00,62.4,54.4,29.92,SSE,165,1.1,1.1,75,0.00,CLR,,0.00,WeatherDisplay:10.37,2013-06-22 06:02:00,
2013-06-21 23:07:00,62.3,54.3,29.92,SSW,196,2.3,2.3,75,0.00,CLR,,0.00,WeatherDisplay:10.37,2013-06-22 06:07:00,
2013-06-21 23:12:00,62.3,54.3,29.92,SSE,166,3.0,3.0,75,0.00,CLR,,0.00,WeatherDisplay:10.37,2013-06-22 06:12:00,
2013-06-21 23:17:00,62.1,54.1,29.92,SSE,166,2.0,2.0,75,0.00,CLR,,0.00,WeatherDisplay:10.37,2013-06-22 06:17:00,
2013-06-21 23:22:00,62.0,54.3,29.92,South,170,2.3,2.3,76,0.00,CLR,,0.00,WeatherDisplay:10.37,2013-06-22 06:22:00,
2013-06-21 23:27:00,61.8,54.2,29.92,SSE,154,2.3,2.3,76,0.00,CLR,,0.00,WeatherDisplay:10.37,2013-06-22 06:27:00,
2013-06-21 23:32:00,61.6,54.0,29.92,SSE,154,0.0,0.0,76,0.00,CLR,,0.00,WeatherDisplay:10.37,2013-06-22 06:32:00,
2013-06-21 23:37:00,61.2,53.9,29.92,SSE,154,0.0,0.5,77,0.00,CLR,,0.00,WeatherDisplay:10.37,2013-06-22 06:37:00,
2013-06-21 23:42:00,60.9,54.0,29.92,SSE,154,0.0,0.0,78,0.00,CLR,,0.00,WeatherDisplay:10.37,2013-06-22 06:42:00,
2013-06-21 23:47:00,60.6,53.7,29.92,SSE,154,0.0,0.0,78,0.00,CLR,,0.00,WeatherDisplay:10.37,2013-06-22 06:47:00,
2013-06-21 23:52:00,60.3,53.8,29.92,SSE,154,0.0,0.0,79,0.00,CLR,,0.00,WeatherDisplay:10.37,2013-06-22 06:52:00,
2013-06-21 23:57:00,59.9,53.0,29.92,SSE,154,0.0,0.2,78,0.00,CLR,,0.00,WeatherDisplay:10.37,2013-06-22 06:57:00,